Atlanta, Illinois
Current Conditions -  °F | °C
As of 6:15 PM on Sunday 25 Jan 2015 (Local Time) from KAAA Reporting Station
Overcast Overcast  
Wind Chill: 19°   Ceiling: 1500
Heat Index: 32°   Visibility: 10mi
Dew Point: 29°   Wind: 22mph
Humidity: 87%   Direction: 20°NNE
Pressure: 29.91"   Gusts: 29mph
Location:  40.26°N, 89.23°W
Report Text: KAAA 260015Z AUTO 02019G25KT 10SM OVC015 00/M02 A2991 RMK AO2 T00001019
Loading
Personal Weather Stations






























Interactive Weather Map New forecast layout! Learn more

10-Day Weather Forecast

Advertisements
Track Severe Weather on mobile